createdAt,value
2023-01-19T00:00:05.457Z,8.90
2023-01-19T00:00:38.028Z,8.30
2023-01-19T00:01:10.380Z,8.00
2023-01-19T00:01:42.826Z,9.00
2023-01-19T00:02:15.316Z,9.40
2023-01-19T00:02:47.808Z,8.60
2023-01-19T00:03:20.317Z,9.10
2023-01-19T00:03:52.820Z,8.10
2023-01-19T00:04:25.343Z,8.70
2023-01-19T00:04:57.841Z,9.20
2023-01-19T00:05:30.359Z,8.50
2023-01-19T00:06:03.006Z,8.90
2023-01-19T00:06:35.512Z,8.80
2023-01-19T00:07:07.954Z,9.10
2023-01-19T00:07:40.460Z,9.10
2023-01-19T00:08:12.897Z,9.30
2023-01-19T00:08:45.329Z,8.50
2023-01-19T00:09:17.785Z,8.50
2023-01-19T00:09:50.241Z,9.40
2023-01-19T00:10:22.779Z,9.50
2023-01-19T00:10:55.325Z,9.80
2023-01-19T00:11:27.768Z,9.40
2023-01-19T00:12:00.240Z,9.50
2023-01-19T00:12:32.681Z,9.70
2023-01-19T00:13:05.149Z,9.30
2023-01-19T00:13:37.651Z,8.90
2023-01-19T00:14:10.279Z,8.60
2023-01-19T00:14:42.779Z,8.90
2023-01-19T00:15:15.405Z,9.80
2023-01-19T00:15:47.890Z,11.00
2023-01-19T00:16:20.494Z,10.60
2023-01-19T00:16:52.958Z,9.20
2023-01-19T00:17:25.426Z,8.80
2023-01-19T00:17:57.957Z,9.60
2023-01-19T00:18:30.392Z,9.90
2023-01-19T00:19:03.009Z,9.00
2023-01-19T00:19:35.484Z,9.30
2023-01-19T00:20:07.978Z,10.20
2023-01-19T00:20:40.761Z,10.10
2023-01-19T00:21:13.113Z,9.50
2023-01-19T00:21:45.631Z,9.40
2023-01-19T00:22:18.135Z,9.80
2023-01-19T00:22:50.660Z,9.90
2023-01-19T00:23:23.183Z,9.70
2023-01-19T00:23:55.887Z,9.90
2023-01-19T00:24:28.390Z,10.10
2023-01-19T00:25:01.693Z,11.00
2023-01-19T00:25:34.241Z,11.50
2023-01-19T00:26:06.735Z,11.00
2023-01-19T00:26:39.195Z,10.10
2023-01-19T00:27:11.657Z,10.10
2023-01-19T00:27:44.707Z,11.10
2023-01-19T00:28:17.146Z,10.60
2023-01-19T00:28:49.696Z,10.00
2023-01-19T00:29:22.169Z,10.50
2023-01-19T00:29:54.634Z,9.30
2023-01-19T00:30:27.120Z,8.70
2023-01-19T00:30:59.672Z,9.80
2023-01-19T00:31:32.233Z,10.40
2023-01-19T00:32:04.759Z,10.10
2023-01-19T00:32:37.216Z,9.90
2023-01-19T00:33:09.723Z,10.60
2023-01-19T00:33:42.223Z,10.60
2023-01-19T00:34:14.663Z,9.90
2023-01-19T00:34:47.163Z,11.40
2023-01-19T00:35:19.668Z,11.40
2023-01-19T00:35:52.169Z,10.70
2023-01-19T00:36:24.727Z,10.70
2023-01-19T00:36:57.201Z,10.80
2023-01-19T00:37:29.761Z,9.50
2023-01-19T00:38:02.245Z,10.30
2023-01-19T00:38:34.716Z,11.30
2023-01-19T00:39:07.126Z,9.90
2023-01-19T00:39:39.586Z,9.60
2023-01-19T00:40:12.055Z,11.20
2023-01-19T00:40:44.506Z,11.50
2023-01-19T00:41:16.934Z,10.90
2023-01-19T00:41:49.432Z,10.90
2023-01-19T00:42:21.938Z,10.70
2023-01-19T00:42:54.486Z,11.10
2023-01-19T00:43:27.010Z,9.80
2023-01-19T00:43:59.444Z,10.10
2023-01-19T00:44:31.910Z,10.10
2023-01-19T00:45:04.397Z,9.80
2023-01-19T00:45:36.940Z,9.90
2023-01-19T00:46:09.446Z,10.00
2023-01-19T00:46:41.820Z,9.70
2023-01-19T00:47:14.256Z,10.20
2023-01-19T00:47:46.696Z,10.30
2023-01-19T00:48:19.126Z,9.70
2023-01-19T00:48:51.543Z,10.70
2023-01-19T00:49:24.051Z,10.90
2023-01-19T00:49:56.541Z,10.70
2023-01-19T00:50:29.037Z,10.90
2023-01-19T00:51:01.498Z,10.50
2023-01-19T00:51:33.940Z,10.40
2023-01-19T00:52:06.386Z,9.80
2023-01-19T00:52:38.832Z,10.30
2023-01-19T00:53:11.338Z,12.00
2023-01-19T00:53:43.817Z,12.00
2023-01-19T00:54:16.263Z,10.60
2023-01-19T00:54:48.688Z,9.70
2023-01-19T00:55:21.141Z,10.50
2023-01-19T00:55:53.576Z,11.30
2023-01-19T00:56:26.066Z,11.20
2023-01-19T00:56:58.656Z,11.00
2023-01-19T00:57:31.103Z,11.30
2023-01-19T00:58:03.633Z,10.20
2023-01-19T00:58:36.106Z,10.20
2023-01-19T00:59:08.553Z,10.10
2023-01-19T00:59:41.010Z,9.90
2023-01-19T01:00:13.485Z,10.70
2023-01-19T01:00:46.034Z,11.50
2023-01-19T01:01:18.570Z,10.70
2023-01-19T01:01:51.096Z,10.10
2023-01-19T01:02:23.582Z,9.80
2023-01-19T01:02:55.942Z,10.60
2023-01-19T01:03:28.445Z,11.70
2023-01-19T01:04:00.864Z,10.80
2023-01-19T01:04:33.321Z,10.60
2023-01-19T01:05:05.836Z,10.90
2023-01-19T01:05:38.348Z,11.20
2023-01-19T01:06:10.906Z,11.20
2023-01-19T01:06:43.351Z,11.20
2023-01-19T01:07:15.798Z,11.70
2023-01-19T01:07:48.313Z,11.50
2023-01-19T01:08:20.830Z,10.70
2023-01-19T01:08:53.262Z,10.00
2023-01-19T01:09:25.753Z,10.00
2023-01-19T01:09:58.190Z,10.00
2023-01-19T01:10:30.692Z,10.50
2023-01-19T01:11:03.110Z,11.20
2023-01-19T01:11:35.575Z,10.20
2023-01-19T01:12:08.020Z,10.60
2023-01-19T01:12:40.558Z,11.20
2023-01-19T01:13:21.211Z,11.50
2023-01-19T01:13:45.416Z,10.50
2023-01-19T01:14:17.877Z,10.30
2023-01-19T01:14:50.383Z,11.40
2023-01-19T01:15:22.907Z,11.20
2023-01-19T01:15:55.376Z,11.10
2023-01-19T01:16:27.889Z,11.00
2023-01-19T01:17:00.367Z,11.40
2023-01-19T01:17:32.900Z,11.80
2023-01-19T01:18:05.344Z,12.40
2023-01-19T01:18:37.898Z,12.20
2023-01-19T01:19:10.387Z,11.10
2023-01-19T01:19:43.014Z,11.10
2023-01-19T01:20:15.546Z,9.90
2023-01-19T01:20:47.996Z,10.80
2023-01-19T01:21:20.491Z,12.10
2023-01-19T01:21:52.921Z,11.20
2023-01-19T01:22:25.368Z,9.90
2023-01-19T01:22:58.035Z,10.60
2023-01-19T01:23:30.438Z,12.10
2023-01-19T01:24:02.944Z,12.00
2023-01-19T01:24:35.507Z,10.80
2023-01-19T01:25:08.015Z,11.10
2023-01-19T01:25:40.614Z,12.60
2023-01-19T01:26:13.142Z,12.10
2023-01-19T01:26:45.578Z,11.80
2023-01-19T01:27:18.048Z,11.40
2023-01-19T01:27:50.543Z,11.10
2023-01-19T01:28:23.059Z,11.50
2023-01-19T01:28:55.564Z,11.40
2023-01-19T01:29:28.084Z,12.30
2023-01-19T01:30:00.698Z,11.20
2023-01-19T01:30:33.348Z,11.00
2023-01-19T01:31:05.871Z,12.10
2023-01-19T01:31:38.385Z,11.60
2023-01-19T01:32:10.837Z,11.50
2023-01-19T01:32:43.294Z,12.00
2023-01-19T01:33:15.751Z,11.50
2023-01-19T01:33:48.334Z,10.90
2023-01-19T01:34:20.834Z,11.80
2023-01-19T01:34:53.459Z,11.50
2023-01-19T01:35:25.982Z,10.90
2023-01-19T01:35:59.386Z,10.80
2023-01-19T01:36:31.868Z,12.40
2023-01-19T01:37:04.371Z,12.20
2023-01-19T01:37:36.898Z,11.40
2023-01-19T01:38:09.357Z,11.20
2023-01-19T01:38:41.901Z,11.50
2023-01-19T01:39:14.372Z,11.00
2023-01-19T01:39:46.822Z,10.80
2023-01-19T01:40:19.298Z,11.20
2023-01-19T01:40:51.862Z,12.00
2023-01-19T01:41:25.530Z,12.00
2023-01-19T01:41:57.657Z,11.90
2023-01-19T01:42:29.717Z,11.80
2023-01-19T01:43:02.470Z,11.80
2023-01-19T01:43:34.768Z,11.10
2023-01-19T01:44:07.219Z,11.90
2023-01-19T01:44:39.734Z,11.70
2023-01-19T01:45:12.260Z,10.80
2023-01-19T01:45:44.814Z,11.40
2023-01-19T01:46:17.468Z,11.40
2023-01-19T01:46:49.731Z,11.70
2023-01-19T01:47:22.306Z,11.80
2023-01-19T01:47:54.821Z,11.90
2023-01-19T01:48:27.293Z,11.80
2023-01-19T01:48:59.780Z,11.00
2023-01-19T01:49:32.274Z,11.10
2023-01-19T01:50:04.904Z,11.90
2023-01-19T01:50:38.065Z,11.90
2023-01-19T01:51:10.529Z,11.30
2023-01-19T01:51:43.027Z,12.30
2023-01-19T01:52:15.528Z,11.60
2023-01-19T01:53:06.503Z,11.50
2023-01-19T01:53:20.510Z,12.20
2023-01-19T01:53:53.104Z,12.50
2023-01-19T01:54:25.663Z,12.10
2023-01-19T01:54:58.173Z,12.00
2023-01-19T01:55:30.669Z,11.90
2023-01-19T01:56:03.205Z,11.80
2023-01-19T01:56:35.813Z,12.00
2023-01-19T01:57:08.318Z,12.60
2023-01-19T01:57:40.821Z,12.30
2023-01-19T01:58:13.304Z,11.50
2023-01-19T01:58:45.811Z,12.00
2023-01-19T01:59:18.396Z,11.70
2023-01-19T01:59:50.895Z,11.90
2023-01-19T02:00:23.404Z,11.90
2023-01-19T02:00:55.912Z,10.70
2023-01-19T02:01:29.137Z,11.20
2023-01-19T02:02:01.056Z,11.70
2023-01-19T02:02:33.470Z,13.00
2023-01-19T02:03:06.058Z,12.70
2023-01-19T02:03:38.485Z,11.20
2023-01-19T02:04:10.943Z,11.20
2023-01-19T02:04:43.477Z,11.70
2023-01-19T02:05:15.983Z,12.10
2023-01-19T02:05:48.603Z,12.60
2023-01-19T02:06:21.110Z,11.90
2023-01-19T02:06:53.568Z,11.20
2023-01-19T02:07:26.069Z,11.40
2023-01-19T02:07:58.620Z,11.10
2023-01-19T02:08:31.145Z,11.20
2023-01-19T02:09:03.658Z,11.70
2023-01-19T02:09:36.265Z,11.30
2023-01-19T02:10:08.733Z,12.30
2023-01-19T02:10:41.344Z,11.90
2023-01-19T02:11:13.877Z,11.50
2023-01-19T02:11:46.432Z,11.90
2023-01-19T02:12:18.971Z,11.30
2023-01-19T02:12:51.678Z,11.20
2023-01-19T02:13:24.215Z,11.30
2023-01-19T02:13:56.738Z,12.00
2023-01-19T02:14:29.268Z,12.90
2023-01-19T02:15:01.779Z,12.00
2023-01-19T02:15:34.882Z,11.20
2023-01-19T02:16:07.317Z,12.00
2023-01-19T02:16:39.803Z,12.20
2023-01-19T02:17:12.317Z,11.50
2023-01-19T02:17:44.839Z,11.20
2023-01-19T02:18:17.330Z,12.80
2023-01-19T02:18:49.833Z,14.30
2023-01-19T02:19:22.313Z,12.40
2023-01-19T02:19:54.847Z,11.30
2023-01-19T02:20:27.345Z,12.00
2023-01-19T02:20:59.935Z,12.00
2023-01-19T02:21:32.447Z,11.60
2023-01-19T02:22:04.930Z,11.30
2023-01-19T02:22:37.396Z,11.70
2023-01-19T02:23:09.857Z,12.10
2023-01-19T02:23:42.362Z,11.50
2023-01-19T02:24:14.880Z,11.90
2023-01-19T02:24:47.398Z,12.40
2023-01-19T02:25:19.892Z,12.30
2023-01-19T02:25:52.387Z,13.40
2023-01-19T02:26:24.911Z,12.00
2023-01-19T02:26:57.447Z,11.20
2023-01-19T02:27:29.991Z,12.40
2023-01-19T02:28:02.488Z,13.50
2023-01-19T02:28:35.046Z,12.60
2023-01-19T02:29:07.565Z,11.30
2023-01-19T02:29:40.062Z,11.40
2023-01-19T02:30:12.518Z,12.00
2023-01-19T02:30:44.989Z,11.80
2023-01-19T02:31:17.386Z,12.40
2023-01-19T02:31:49.904Z,12.30
2023-01-19T02:32:22.403Z,11.50
2023-01-19T02:32:54.861Z,11.40
2023-01-19T02:33:27.333Z,11.80
2023-01-19T02:33:59.862Z,12.20
2023-01-19T02:34:32.377Z,12.50
2023-01-19T02:35:04.817Z,12.80
2023-01-19T02:35:37.256Z,12.50
2023-01-19T02:36:09.717Z,12.80
2023-01-19T02:36:42.287Z,12.40
2023-01-19T02:37:14.826Z,12.40
2023-01-19T02:37:47.302Z,12.50
2023-01-19T02:38:19.791Z,12.10
2023-01-19T02:38:52.270Z,11.70
2023-01-19T02:39:24.767Z,12.50
2023-01-19T02:39:57.290Z,12.70
2023-01-19T02:40:29.828Z,12.70
2023-01-19T02:41:02.275Z,11.70
2023-01-19T02:41:34.754Z,11.50
2023-01-19T02:42:07.211Z,11.30
2023-01-19T02:42:39.652Z,11.40
2023-01-19T02:43:12.124Z,11.40
2023-01-19T02:43:44.650Z,11.90
2023-01-19T02:44:17.145Z,12.20
2023-01-19T02:44:49.635Z,12.10
2023-01-19T02:45:22.242Z,11.50
2023-01-19T02:45:54.724Z,11.30
2023-01-19T02:46:27.129Z,11.50
2023-01-19T02:46:59.670Z,12.20
2023-01-19T02:47:32.145Z,11.60
2023-01-19T02:48:04.596Z,11.80
2023-01-19T02:48:37.131Z,12.90
2023-01-19T02:49:09.595Z,12.90
2023-01-19T02:49:42.067Z,12.20
2023-01-19T02:50:14.522Z,11.40
2023-01-19T02:50:46.996Z,11.70
2023-01-19T02:51:19.461Z,11.60
2023-01-19T02:51:51.988Z,11.40
2023-01-19T02:52:24.489Z,12.50
2023-01-19T02:52:56.934Z,13.00
2023-01-19T02:53:29.406Z,12.50
2023-01-19T02:54:01.957Z,12.30
2023-01-19T02:54:34.452Z,12.10
2023-01-19T02:55:06.925Z,11.50
2023-01-19T02:55:39.467Z,11.00
2023-01-19T02:56:11.946Z,11.60
2023-01-19T02:56:44.420Z,13.60
2023-01-19T02:57:16.844Z,13.60
2023-01-19T02:57:49.480Z,13.60
2023-01-19T02:58:21.984Z,11.50
2023-01-19T02:58:54.468Z,11.40
2023-01-19T02:59:26.990Z,11.80
2023-01-19T02:59:59.460Z,12.60
2023-01-19T03:00:32.019Z,12.10
2023-01-19T03:01:04.615Z,12.30
2023-01-19T03:01:37.125Z,11.70
2023-01-19T03:02:09.570Z,11.50
2023-01-19T03:02:41.997Z,11.70
2023-01-19T03:03:14.382Z,12.10
2023-01-19T03:03:46.842Z,12.30
2023-01-19T03:04:19.314Z,11.40
2023-01-19T03:04:52.508Z,11.40
2023-01-19T03:05:24.982Z,11.70
2023-01-19T03:05:57.495Z,12.20
2023-01-19T03:06:30.000Z,11.20
2023-01-19T03:07:02.480Z,11.30
2023-01-19T03:07:34.976Z,12.10
2023-01-19T03:08:07.515Z,12.20
2023-01-19T03:08:40.031Z,12.10
2023-01-19T03:09:13.515Z,11.80
2023-01-19T03:09:45.962Z,11.30
2023-01-19T03:10:18.397Z,11.70
2023-01-19T03:10:50.869Z,12.00
2023-01-19T03:11:23.357Z,12.40
2023-01-19T03:11:55.842Z,12.60
2023-01-19T03:12:29.211Z,11.50
2023-01-19T03:13:02.191Z,12.00
2023-01-19T03:13:34.352Z,11.60
2023-01-19T03:14:06.892Z,12.10
2023-01-19T03:14:39.430Z,12.20
2023-01-19T03:15:11.921Z,12.00
2023-01-19T03:15:44.449Z,12.10
2023-01-19T03:16:16.988Z,12.80
2023-01-19T03:16:49.475Z,12.60
2023-01-19T03:17:21.969Z,11.90
2023-01-19T03:17:54.393Z,11.60
2023-01-19T03:18:27.034Z,11.20
2023-01-19T03:18:59.518Z,11.30
2023-01-19T03:19:32.030Z,11.30
2023-01-19T03:20:04.497Z,12.70
2023-01-19T03:20:36.969Z,13.30
2023-01-19T03:21:09.470Z,12.00
2023-01-19T03:21:41.945Z,12.00
2023-01-19T03:22:14.488Z,13.60
2023-01-19T03:22:46.987Z,12.20
2023-01-19T03:23:19.491Z,12.10
2023-01-19T03:23:52.034Z,12.30
2023-01-19T03:24:24.536Z,12.20
2023-01-19T03:24:57.041Z,12.20
2023-01-19T03:25:29.486Z,11.50
2023-01-19T03:26:01.937Z,13.20
2023-01-19T03:26:34.435Z,12.60
2023-01-19T03:27:06.980Z,11.70
2023-01-19T03:27:39.473Z,11.40
2023-01-19T03:28:11.944Z,10.40
2023-01-19T03:28:44.723Z,11.90
2023-01-19T03:29:17.245Z,13.70
2023-01-19T03:29:49.806Z,12.30
2023-01-19T03:30:22.472Z,11.60
2023-01-19T03:30:55.056Z,11.70
2023-01-19T03:31:27.540Z,12.20
2023-01-19T03:32:00.034Z,11.80
2023-01-19T03:32:32.521Z,12.60
2023-01-19T03:33:04.987Z,12.60
2023-01-19T03:33:37.540Z,11.50
2023-01-19T03:34:10.159Z,11.60
2023-01-19T03:34:42.755Z,11.90
2023-01-19T03:35:15.294Z,12.50
2023-01-19T03:35:47.839Z,13.30
2023-01-19T03:36:20.364Z,11.90
2023-01-19T03:36:52.869Z,11.40
2023-01-19T03:37:25.314Z,11.40
2023-01-19T03:37:57.774Z,11.40
2023-01-19T03:38:30.526Z,11.50
2023-01-19T03:39:03.021Z,12.10
2023-01-19T03:39:35.545Z,11.90
2023-01-19T03:40:08.047Z,12.40
2023-01-19T03:40:40.613Z,12.60
2023-01-19T03:41:13.128Z,12.80
2023-01-19T03:41:45.590Z,11.60
2023-01-19T03:42:18.120Z,10.90
2023-01-19T03:42:50.635Z,12.80
2023-01-19T03:43:23.179Z,13.00
2023-01-19T03:43:55.810Z,11.70
2023-01-19T03:44:28.323Z,12.60
2023-01-19T03:45:00.870Z,11.80
2023-01-19T03:45:33.372Z,11.40
2023-01-19T03:46:05.872Z,11.80
2023-01-19T03:46:38.339Z,11.70
2023-01-19T03:47:10.838Z,12.10
2023-01-19T03:47:43.347Z,12.40
2023-01-19T03:48:15.910Z,11.60
2023-01-19T03:48:48.479Z,12.20
2023-01-19T03:49:21.006Z,11.40
2023-01-19T03:49:53.645Z,11.40
2023-01-19T03:50:26.171Z,11.60
2023-01-19T03:50:58.624Z,11.60
2023-01-19T03:51:31.115Z,10.50
2023-01-19T03:52:03.569Z,11.70
2023-01-19T03:52:36.112Z,11.80
2023-01-19T03:53:08.696Z,11.30
2023-01-19T03:53:41.215Z,12.90
2023-01-19T03:54:13.731Z,12.50
2023-01-19T03:54:46.240Z,11.70
2023-01-19T03:55:18.767Z,11.10
2023-01-19T03:55:51.286Z,11.70
2023-01-19T03:56:24.571Z,11.40
2023-01-19T03:56:57.098Z,10.90
2023-01-19T03:57:30.554Z,11.60
2023-01-19T03:58:03.152Z,11.70
2023-01-19T03:58:35.665Z,11.40
2023-01-19T03:59:08.236Z,12.10
2023-01-19T03:59:40.768Z,11.80
2023-01-19T04:00:13.289Z,11.50
2023-01-19T04:00:45.839Z,11.60
2023-01-19T04:01:18.414Z,11.40
2023-01-19T04:01:50.863Z,11.60
2023-01-19T04:02:23.518Z,11.20
2023-01-19T04:02:55.993Z,11.70
2023-01-19T04:03:28.406Z,12.70
2023-01-19T04:04:00.966Z,12.90
2023-01-19T04:04:33.485Z,12.30
2023-01-19T04:05:06.005Z,12.20
2023-01-19T04:05:38.492Z,11.30
2023-01-19T04:06:10.976Z,11.30
2023-01-19T04:06:43.473Z,11.20
2023-01-19T04:07:15.950Z,10.60
2023-01-19T04:07:48.464Z,10.10
2023-01-19T04:08:20.978Z,11.40
2023-01-19T04:08:53.511Z,11.10
2023-01-19T04:09:26.061Z,11.10
2023-01-19T04:09:58.651Z,10.90
2023-01-19T04:10:31.157Z,10.80
2023-01-19T04:11:03.630Z,11.40
2023-01-19T04:11:36.247Z,11.70
2023-01-19T04:12:08.740Z,12.20
2023-01-19T04:12:41.206Z,11.40
2023-01-19T04:13:13.767Z,11.10
2023-01-19T04:13:46.299Z,11.20
2023-01-19T04:14:18.904Z,11.50
2023-01-19T04:14:51.408Z,11.30
2023-01-19T04:15:23.890Z,11.20
2023-01-19T04:15:56.408Z,11.70
2023-01-19T04:16:28.843Z,11.50
2023-01-19T04:17:01.405Z,11.10
2023-01-19T04:17:33.965Z,10.80
2023-01-19T04:18:06.471Z,11.30
2023-01-19T04:18:39.082Z,10.60
2023-01-19T04:19:11.528Z,10.50
2023-01-19T04:19:43.985Z,11.00
2023-01-19T04:20:16.516Z,10.90
2023-01-19T04:20:49.137Z,11.10
2023-01-19T04:21:21.580Z,11.40
2023-01-19T04:21:54.036Z,11.30
2023-01-19T04:22:26.555Z,11.50
2023-01-19T04:22:59.316Z,10.90
2023-01-19T04:23:31.631Z,10.60
2023-01-19T04:24:04.126Z,9.90
2023-01-19T04:24:36.583Z,10.90
2023-01-19T04:25:09.026Z,11.50
2023-01-19T04:25:41.502Z,10.60
2023-01-19T04:26:14.021Z,10.30
2023-01-19T04:26:46.548Z,10.60
2023-01-19T04:27:19.063Z,9.70
2023-01-19T04:27:51.603Z,9.50
2023-01-19T04:28:24.055Z,10.10
2023-01-19T04:28:56.539Z,10.40
2023-01-19T04:29:29.025Z,11.20
2023-01-19T04:30:01.492Z,11.10
2023-01-19T04:30:33.999Z,11.50
2023-01-19T04:31:06.494Z,11.60
2023-01-19T04:31:38.978Z,11.50
2023-01-19T04:32:11.451Z,11.90
2023-01-19T04:32:44.046Z,11.70
2023-01-19T04:33:16.484Z,10.60
2023-01-19T04:33:48.957Z,11.10
2023-01-19T04:34:21.466Z,12.20
2023-01-19T04:34:53.982Z,12.30
2023-01-19T04:35:26.429Z,10.80
2023-01-19T04:35:58.864Z,10.00
2023-01-19T04:36:31.383Z,9.80
2023-01-19T04:37:03.888Z,10.80
2023-01-19T04:37:36.371Z,10.50
2023-01-19T04:38:08.844Z,9.40
2023-01-19T04:38:41.305Z,9.20
2023-01-19T04:39:13.778Z,10.10
2023-01-19T04:39:46.264Z,10.00
2023-01-19T04:40:18.732Z,9.70
2023-01-19T04:40:51.265Z,10.40
2023-01-19T04:41:23.715Z,10.80
2023-01-19T04:41:56.200Z,10.90
2023-01-19T04:42:28.769Z,10.20
2023-01-19T04:43:01.708Z,11.30
2023-01-19T04:43:33.824Z,10.50
2023-01-19T04:44:06.324Z,9.70
2023-01-19T04:44:38.993Z,10.10
2023-01-19T04:45:11.507Z,10.90
2023-01-19T04:45:44.026Z,10.50
2023-01-19T04:46:16.633Z,10.70
2023-01-19T04:46:49.154Z,10.40
2023-01-19T04:47:40.993Z,9.80
2023-01-19T04:48:13.501Z,10.30
2023-01-19T04:48:46.008Z,11.00
2023-01-19T04:49:18.500Z,10.80
2023-01-19T04:49:50.951Z,10.40
2023-01-19T04:50:23.416Z,11.00
2023-01-19T04:50:55.898Z,11.40
2023-01-19T04:51:28.364Z,10.70
2023-01-19T04:52:00.894Z,10.80
2023-01-19T04:52:33.407Z,10.10
2023-01-19T04:53:05.986Z,10.10
2023-01-19T04:53:38.470Z,11.00
2023-01-19T04:54:10.936Z,11.10
2023-01-19T04:54:43.361Z,10.10
2023-01-19T04:55:15.828Z,9.60
2023-01-19T04:55:48.302Z,11.10
2023-01-19T04:56:20.793Z,11.70
2023-01-19T04:56:53.236Z,11.60
2023-01-19T04:57:25.701Z,11.10
2023-01-19T04:57:58.201Z,11.10
2023-01-19T04:58:30.734Z,12.40
2023-01-19T04:59:03.224Z,12.30
2023-01-19T04:59:35.796Z,10.50
2023-01-19T05:00:08.336Z,11.10
2023-01-19T05:00:40.910Z,10.30
2023-01-19T05:01:13.475Z,11.60
2023-01-19T05:01:45.939Z,12.10
2023-01-19T05:02:18.429Z,12.00
2023-01-19T05:02:51.008Z,11.00
2023-01-19T05:03:24.961Z,10.90
2023-01-19T05:03:56.061Z,11.80
2023-01-19T05:04:28.676Z,11.50
2023-01-19T05:05:01.208Z,12.10
2023-01-19T05:05:33.723Z,12.30
2023-01-19T05:06:06.183Z,10.90
2023-01-19T05:06:38.677Z,9.90
2023-01-19T05:07:11.198Z,10.60
2023-01-19T05:07:43.742Z,10.90
2023-01-19T05:08:16.243Z,10.90
2023-01-19T05:08:48.767Z,11.60
2023-01-19T05:09:21.293Z,11.90
2023-01-19T05:09:53.804Z,10.90
2023-01-19T05:10:26.218Z,10.60
2023-01-19T05:10:58.710Z,10.80
2023-01-19T05:11:31.187Z,10.70
2023-01-19T05:12:03.637Z,11.70
2023-01-19T05:12:36.186Z,11.60
2023-01-19T05:13:08.670Z,11.20
2023-01-19T05:13:41.248Z,11.80
2023-01-19T05:14:13.688Z,11.30
2023-01-19T05:14:46.193Z,10.50
2023-01-19T05:15:18.683Z,10.40
2023-01-19T05:15:51.218Z,11.90
2023-01-19T05:16:23.771Z,11.60
2023-01-19T05:16:56.167Z,11.10
2023-01-19T05:17:28.632Z,11.00
2023-01-19T05:18:08.792Z,10.80
2023-01-19T05:18:41.501Z,10.90
2023-01-19T05:19:13.960Z,12.00
2023-01-19T05:19:46.415Z,11.70
2023-01-19T05:20:18.878Z,11.60
2023-01-19T05:20:51.496Z,10.60
2023-01-19T05:21:23.949Z,10.90
2023-01-19T05:21:56.505Z,11.00
2023-01-19T05:22:29.033Z,10.80
2023-01-19T05:23:01.742Z,10.90
2023-01-19T05:23:34.070Z,11.40
2023-01-19T05:24:06.554Z,10.60
2023-01-19T05:24:39.078Z,9.10
2023-01-19T05:25:11.566Z,9.30
2023-01-19T05:25:44.016Z,10.20
2023-01-19T05:26:16.475Z,10.90
2023-01-19T05:26:49.742Z,11.30
2023-01-19T05:27:22.529Z,10.60
2023-01-19T05:27:54.966Z,9.60
2023-01-19T05:28:27.400Z,9.80
2023-01-19T05:28:59.876Z,9.20
2023-01-19T05:29:32.382Z,8.80
2023-01-19T05:30:04.884Z,9.30
2023-01-19T05:30:37.358Z,9.10
2023-01-19T05:31:09.969Z,8.50
2023-01-19T05:31:42.351Z,8.90
2023-01-19T05:32:14.836Z,9.80
2023-01-19T05:32:47.386Z,9.90
2023-01-19T05:33:19.923Z,11.00
2023-01-19T05:33:52.361Z,10.90
2023-01-19T05:34:24.804Z,10.40
2023-01-19T05:34:57.270Z,10.20
2023-01-19T05:35:35.748Z,9.90
2023-01-19T05:36:02.248Z,9.90
2023-01-19T05:36:34.730Z,9.80
2023-01-19T05:37:07.231Z,9.10
2023-01-19T05:37:39.757Z,9.90
2023-01-19T05:38:12.272Z,9.80
2023-01-19T05:38:44.731Z,9.30
2023-01-19T05:39:18.148Z,9.40
2023-01-19T05:39:50.641Z,9.50
2023-01-19T05:40:23.037Z,9.40
2023-01-19T05:40:55.499Z,9.40
2023-01-19T05:41:27.940Z,8.70
2023-01-19T05:42:00.394Z,9.60
2023-01-19T05:42:33.077Z,9.40
2023-01-19T05:43:05.618Z,9.90
2023-01-19T05:43:37.823Z,10.20
2023-01-19T05:44:10.355Z,8.90
2023-01-19T05:44:42.872Z,9.10
2023-01-19T05:45:15.395Z,8.90
2023-01-19T05:45:47.902Z,9.40
2023-01-19T05:46:20.455Z,9.60
2023-01-19T05:46:52.916Z,9.30
2023-01-19T05:47:25.323Z,9.10
2023-01-19T05:47:57.822Z,8.80
2023-01-19T05:48:30.293Z,9.10
2023-01-19T05:49:02.813Z,9.50
2023-01-19T05:49:35.311Z,8.80
2023-01-19T05:50:07.843Z,9.40
2023-01-19T05:50:40.335Z,10.10
2023-01-19T05:51:12.789Z,10.00
2023-01-19T05:51:45.500Z,10.30
2023-01-19T05:52:17.979Z,10.30
2023-01-19T05:52:50.457Z,9.40
2023-01-19T05:53:22.927Z,9.40
2023-01-19T05:53:55.420Z,9.00
2023-01-19T05:54:27.891Z,9.30
2023-01-19T05:55:00.335Z,9.70
2023-01-19T05:55:32.787Z,9.70
2023-01-19T05:56:05.299Z,10.80
2023-01-19T05:56:37.774Z,10.50
2023-01-19T05:57:10.265Z,10.00
2023-01-19T05:57:42.767Z,9.40
2023-01-19T05:58:15.277Z,8.70
2023-01-19T05:58:47.764Z,9.40
2023-01-19T05:59:20.227Z,10.10
2023-01-19T05:59:52.702Z,10.30
2023-01-19T06:00:25.233Z,10.00
2023-01-19T06:00:57.756Z,10.60
2023-01-19T06:01:30.242Z,9.60
2023-01-19T06:02:02.789Z,9.00
2023-01-19T06:02:35.204Z,9.70
2023-01-19T06:03:07.746Z,10.90
2023-01-19T06:03:40.237Z,11.00
2023-01-19T06:04:12.741Z,10.10
2023-01-19T06:04:45.280Z,9.60
2023-01-19T06:05:17.818Z,10.00
2023-01-19T06:05:50.317Z,9.90
2023-01-19T06:06:22.850Z,9.50
2023-01-19T06:06:55.350Z,9.60
2023-01-19T06:07:29.105Z,10.30
2023-01-19T06:08:00.375Z,9.40
2023-01-19T06:08:32.940Z,9.10
2023-01-19T06:09:05.447Z,9.60
2023-01-19T06:09:37.946Z,9.50
2023-01-19T06:10:10.484Z,9.60
2023-01-19T06:10:42.996Z,9.90
2023-01-19T06:11:15.511Z,9.60
2023-01-19T06:11:48.029Z,9.50
2023-01-19T06:12:20.548Z,9.50
2023-01-19T06:12:53.116Z,9.00
2023-01-19T06:13:25.626Z,9.90
2023-01-19T06:13:58.144Z,10.20
2023-01-19T06:14:30.616Z,10.40
2023-01-19T06:15:03.056Z,10.10
2023-01-19T06:15:35.544Z,9.70
2023-01-19T06:16:07.994Z,9.00
2023-01-19T06:16:40.479Z,9.20
2023-01-19T06:17:12.931Z,9.50
2023-01-19T06:17:45.538Z,9.80
2023-01-19T06:18:18.060Z,10.60
2023-01-19T06:18:50.529Z,10.80
2023-01-19T06:19:22.991Z,10.50
2023-01-19T06:19:55.455Z,9.90
2023-01-19T06:20:28.000Z,9.90
2023-01-19T06:21:00.528Z,9.40
2023-01-19T06:21:33.038Z,9.40
2023-01-19T06:22:05.541Z,9.20
2023-01-19T06:22:38.056Z,9.30
2023-01-19T06:23:10.525Z,8.60
2023-01-19T06:23:42.973Z,8.80
2023-01-19T06:24:15.455Z,9.70
2023-01-19T06:24:47.901Z,9.50
2023-01-19T06:25:20.357Z,9.20
2023-01-19T06:25:52.868Z,9.40
2023-01-19T06:26:25.342Z,9.80
2023-01-19T06:26:57.800Z,9.60
2023-01-19T06:27:30.329Z,9.20
2023-01-19T06:28:02.875Z,9.60
2023-01-19T06:28:35.372Z,9.20
2023-01-19T06:29:07.948Z,8.90
2023-01-19T06:29:40.516Z,9.20
2023-01-19T06:30:13.065Z,8.50
2023-01-19T06:30:45.569Z,8.60
2023-01-19T06:31:18.033Z,9.00
2023-01-19T06:31:50.507Z,9.50
2023-01-19T06:32:22.912Z,9.90
2023-01-19T06:32:55.465Z,9.40
2023-01-19T06:33:28.275Z,8.80
2023-01-19T06:34:00.784Z,9.00
2023-01-19T06:34:33.303Z,9.60
2023-01-19T06:35:05.872Z,9.40
2023-01-19T06:35:38.356Z,9.60
2023-01-19T06:36:10.837Z,9.60
2023-01-19T06:36:43.378Z,9.20
2023-01-19T06:37:15.832Z,8.70
2023-01-19T06:37:48.283Z,7.80
2023-01-19T06:38:20.781Z,8.10
2023-01-19T06:38:53.323Z,8.70
2023-01-19T06:39:25.843Z,8.10
2023-01-19T06:39:58.326Z,8.50
2023-01-19T06:40:30.800Z,9.50
2023-01-19T06:41:03.381Z,9.00
2023-01-19T06:41:35.954Z,9.00
2023-01-19T06:42:08.438Z,8.80
2023-01-19T06:42:40.900Z,8.10
2023-01-19T06:43:13.421Z,8.60
2023-01-19T06:43:45.895Z,8.70
2023-01-19T06:44:18.399Z,8.90
2023-01-19T06:44:50.845Z,8.80
2023-01-19T06:45:23.472Z,8.60
2023-01-19T06:45:56.035Z,8.00
2023-01-19T06:46:28.464Z,8.10
2023-01-19T06:47:14.550Z,8.70
2023-01-19T06:47:33.397Z,8.60
2023-01-19T06:48:05.870Z,8.50
2023-01-19T06:48:38.342Z,9.00
2023-01-19T06:49:10.803Z,8.20
2023-01-19T06:49:43.287Z,8.20
2023-01-19T06:50:15.708Z,8.20
2023-01-19T06:50:48.197Z,8.30
2023-01-19T06:51:20.724Z,8.00
2023-01-19T06:51:53.238Z,8.30
2023-01-19T06:52:25.749Z,8.90
2023-01-19T06:52:58.697Z,8.60
2023-01-19T06:53:30.807Z,9.30
2023-01-19T06:54:03.344Z,9.30
2023-01-19T06:54:35.807Z,8.10
2023-01-19T06:55:08.315Z,7.90
2023-01-19T06:55:40.752Z,7.70
2023-01-19T06:56:13.291Z,7.60
2023-01-19T06:56:45.982Z,8.40
2023-01-19T06:57:18.459Z,8.50
2023-01-19T06:57:50.992Z,8.10
2023-01-19T06:58:23.536Z,8.10
2023-01-19T06:58:56.075Z,8.20
2023-01-19T06:59:28.542Z,8.00
2023-01-19T07:00:01.005Z,8.40
2023-01-19T07:00:33.516Z,8.00
2023-01-19T07:01:06.023Z,7.80
2023-01-19T07:01:38.614Z,7.70
2023-01-19T07:02:27.043Z,7.90
2023-01-19T07:02:43.478Z,7.70